Columbia Falls, MT

8:26 AM MDT on August 28, 2016 (GMT -0600)
Tamarack Lane | | Change Station
Active Advisory: Air Quality Alert

Elev 3133 ft 48.38 °N, 114.19 °W | Updated 16 minutes ago

Clear
Clear
50.4 °F
Feels Like 50.4 °F
N
0.0
Wind Variable Wind from NNW
Gusts 0.0 mph

Today
High -- | Low -- °F
--% Chance of Precip.
Yesterday
High -- | Low -- °F
Precip. -- in
Pressure 29.94 in
Visibility 9.0 miles
Clouds Clear
Dew Point 42 °F
Humidity 74%
Rainfall 0.00 in
Snow Depth Not available.
6:49 AM 8:25 PM
Waning Crescent, 15% visible
METAR KCTB 281356Z AUTO 35008KT 9SM CLR 11/08 A3000 RMK AO2 SLP139 T01110083
Pressure 29.94 in
Visibility 9.0 miles
Clouds Clear
Dew Point 42 °F
Humidity 74%
Rainfall 0.00 in
Snow Depth Not available.
6:49 AM 8:25 PM
Waning Crescent, 15% visible
METAR KCTB 281356Z AUTO 35008KT 9SM CLR 11/08 A3000 RMK AO2 SLP139 T01110083

10-Day Weather Forecast

Almanac

Astronomy

Aug. 28, 2016 Rise Set
Actual Time
Civil Twilight
Nautical Twilight
Astronomical Twilight
Moon
Length of Visible Light
Length of Day
Tomorrow will be .
, % of the Moon is Illuminated

Today's Extremes

State Highs State Lows

Community

WunderPhotos

Upload Photos

1,935,577 photos uploaded!

WunderBlog® & News

Nearby

Air Quality

  Air Quality AQ Index Pollutant
Not available.

Snow Depth

Station Depth Elevation

Earthquake Activity

City Distance Mag. Time & Date
Minimum magnitude displayed is 2.5.

Coastal Water Temperatures

Place Temperature

Stations

Nearby Weather Stations

Station Location Temp. Windchill Dew Point Humidity Wind Precip. Elev Updated Type
                   

Watches & Warnings

Air Quality Alert
Issued: 9:00 AM MDT Aug. 27, 2016 – National Weather Service

The Montana department of environmental quality has issued an air
quality alert for Sanders County in effect until further notice due
to nearby wildfire activity. Significant air quality impacts are
expected in the southern portion of Gallatin County near Yellowstone
National Park and the community of Thompson Falls in Sanders County.
This alert will be updated again at 900am on August 28... 2016.

An air quality alert means that particulates have been trending
upwards and that an exceedence of the 24 hour National ambient air
quality Standard (naaqs) has occurred or may occur in the near
future.

Particulate levels in Thompson Falls are unhealthy.

When air quality is unhealthy... state and local health officials
recommend that people with respiratory or heart disease... the elderly...
and children should avoid prolonged exertion... everyone else should
limit prolonged exertion.

For more information... visit the Montana department of environmental
quality at www.Todaysair.Mt.Gov.